sensor_id;sensor_type;location;lat;lon;timestamp;pressure;altitude;pressure_sealevel;temperature;humidity
21011;BME280;10663;42.714;23.274;2023-02-19T00:00:53;95094.34;;;7.04;59.13
21011;BME280;10663;42.714;23.274;2023-02-19T00:02:24;95084.31;;;7.01;59.15
21011;BME280;10663;42.714;23.274;2023-02-19T00:03:57;95086.25;;;6.94;59.53
21011;BME280;10663;42.714;23.274;2023-02-19T00:05:28;95089.47;;;6.84;59.36
21011;BME280;10663;42.714;23.274;2023-02-19T00:06:59;95080.69;;;6.79;59.70
21011;BME280;10663;42.714;23.274;2023-02-19T00:08:31;95089.38;;;6.79;59.73
21011;BME280;10663;42.714;23.274;2023-02-19T00:10:02;95078.72;;;6.74;59.95
21011;BME280;10663;42.714;23.274;2023-02-19T00:11:34;95071.19;;;6.78;60.34
21011;BME280;10663;42.714;23.274;2023-02-19T00:13:04;95073.38;;;6.69;60.13
21011;BME280;10663;42.714;23.274;2023-02-19T00:14:35;95066.28;;;6.58;60.52
21011;BME280;10663;42.714;23.274;2023-02-19T00:17:41;95069.13;;;6.56;60.70
21011;BME280;10663;42.714;23.274;2023-02-19T00:19:16;95069.13;;;6.56;60.72
21011;BME280;10663;42.714;23.274;2023-02-19T00:20:47;95061.25;;;6.56;60.46
21011;BME280;10663;42.714;23.274;2023-02-19T00:22:17;95062.25;;;6.67;60.42
21011;BME280;10663;42.714;23.274;2023-02-19T00:23:50;95060.91;;;6.64;60.68
21011;BME280;10663;42.714;23.274;2023-02-19T00:25:21;95060.13;;;6.64;60.65
21011;BME280;10663;42.714;23.274;2023-02-19T00:26:52;95043.97;;;6.60;60.58
21011;BME280;10663;42.714;23.274;2023-02-19T00:28:22;95050.13;;;6.66;60.08
21011;BME280;10663;42.714;23.274;2023-02-19T00:29:53;95047.72;;;6.76;60.41
21011;BME280;10663;42.714;23.274;2023-02-19T00:31:32;95059.03;;;6.76;60.33
21011;BME280;10663;42.714;23.274;2023-02-19T00:33:04;95055.53;;;6.71;60.53
21011;BME280;10663;42.714;23.274;2023-02-19T00:34:35;95055.88;;;6.63;60.71
21011;BME280;10663;42.714;23.274;2023-02-19T00:36:06;95057.34;;;6.59;60.76
21011;BME280;10663;42.714;23.274;2023-02-19T00:37:37;95053.03;;;6.64;60.83
21011;BME280;10663;42.714;23.274;2023-02-19T00:39:12;95050.50;;;6.58;60.25
21011;BME280;10663;42.714;23.274;2023-02-19T00:40:44;95044.78;;;6.61;60.73
21011;BME280;10663;42.714;23.274;2023-02-19T00:42:15;95045.34;;;6.63;60.43
21011;BME280;10663;42.714;23.274;2023-02-19T00:43:53;95044.06;;;6.65;60.44
21011;BME280;10663;42.714;23.274;2023-02-19T00:45:25;95044.66;;;6.67;60.53
21011;BME280;10663;42.714;23.274;2023-02-19T00:46:56;95025.19;;;6.68;60.45
21011;BME280;10663;42.714;23.274;2023-02-19T00:48:26;95025.91;;;6.64;60.70
21011;BME280;10663;42.714;23.274;2023-02-19T00:49:57;95027.16;;;6.61;61.31
21011;BME280;10663;42.714;23.274;2023-02-19T00:51:31;95022.13;;;6.60;60.82
21011;BME280;10663;42.714;23.274;2023-02-19T00:53:03;95013.56;;;6.64;60.76
21011;BME280;10663;42.714;23.274;2023-02-19T00:54:34;95013.88;;;7.08;58.85
21011;BME280;10663;42.714;23.274;2023-02-19T00:56:05;95027.31;;;7.23;58.61
21011;BME280;10663;42.714;23.274;2023-02-19T00:57:36;95012.16;;;7.02;59.51
21011;BME280;10663;42.714;23.274;2023-02-19T00:59:07;95014.94;;;6.95;59.74
21011;BME280;10663;42.714;23.274;2023-02-19T01:00:38;95012.53;;;6.94;59.09
21011;BME280;10663;42.714;23.274;2023-02-19T01:02:09;95024.25;;;6.86;60.17
21011;BME280;10663;42.714;23.274;2023-02-19T01:03:40;95027.25;;;6.66;60.16
21011;BME280;10663;42.714;23.274;2023-02-19T01:05:10;95025.00;;;6.47;61.23
21011;BME280;10663;42.714;23.274;2023-02-19T01:06:41;95025.81;;;6.35;62.03
21011;BME280;10663;42.714;23.274;2023-02-19T01:08:12;95020.22;;;6.32;61.59
21011;BME280;10663;42.714;23.274;2023-02-19T01:09:43;95029.81;;;6.15;62.35
21011;BME280;10663;42.714;23.274;2023-02-19T01:11:15;95034.03;;;6.04;62.89
21011;BME280;10663;42.714;23.274;2023-02-19T01:12:46;95032.91;;;6.00;63.27
21011;BME280;10663;42.714;23.274;2023-02-19T01:14:17;95029.47;;;5.88;63.54
21011;BME280;10663;42.714;23.274;2023-02-19T01:15:47;95040.38;;;5.85;63.50
21011;BME280;10663;42.714;23.274;2023-02-19T01:17:19;95036.31;;;5.89;63.06
21011;BME280;10663;42.714;23.274;2023-02-19T01:18:51;95030.09;;;5.83;63.39
21011;BME280;10663;42.714;23.274;2023-02-19T01:20:22;95023.56;;;5.74;64.15
21011;BME280;10663;42.714;23.274;2023-02-19T01:21:53;95030.06;;;5.60;64.32
21011;BME280;10663;42.714;23.274;2023-02-19T01:23:24;95026.53;;;5.54;64.61
21011;BME280;10663;42.714;23.274;2023-02-19T01:24:55;95028.56;;;5.52;65.29
21011;BME280;10663;42.714;23.274;2023-02-19T01:26:28;95033.59;;;5.54;65.26
21011;BME280;10663;42.714;23.274;2023-02-19T01:27:59;95040.22;;;5.45;65.55
21011;BME280;10663;42.714;23.274;2023-02-19T01:29:30;95034.81;;;5.40;65.88
21011;BME280;10663;42.714;23.274;2023-02-19T01:31:03;95031.59;;;5.26;66.92
21011;BME280;10663;42.714;23.274;2023-02-19T01:32:34;95045.81;;;5.18;67.79
21011;BME280;10663;42.714;23.274;2023-02-19T01:34:05;95043.03;;;5.13;68.04
21011;BME280;10663;42.714;23.274;2023-02-19T01:35:39;95050.34;;;5.11;68.11
21011;BME280;10663;42.714;23.274;2023-02-19T01:37:10;95040.63;;;5.12;68.15
21011;BME280;10663;42.714;23.274;2023-02-19T01:38:42;95036.78;;;5.14;68.38
21011;BME280;10663;42.714;23.274;2023-02-19T01:40:13;95050.19;;;5.24;68.01
21011;BME280;10663;42.714;23.274;2023-02-19T01:41:43;95052.50;;;5.33;67.48
21011;BME280;10663;42.714;23.274;2023-02-19T01:43:15;95055.81;;;5.40;66.95
21011;BME280;10663;42.714;23.274;2023-02-19T01:46:16;95063.69;;;5.40;66.90
21011;BME280;10663;42.714;23.274;2023-02-19T01:47:55;95064.06;;;5.43;67.19
21011;BME280;10663;42.714;23.274;2023-02-19T01:49:31;95055.22;;;5.38;67.02
21011;BME280;10663;42.714;23.274;2023-02-19T01:51:09;95057.38;;;5.29;67.19
21011;BME280;10663;42.714;23.274;2023-02-19T01:52:41;95064.69;;;5.27;67.78
21011;BME280;10663;42.714;23.274;2023-02-19T01:54:15;95068.13;;;5.28;67.75
21011;BME280;10663;42.714;23.274;2023-02-19T01:55:49;95066.81;;;5.18;67.83
21011;BME280;10663;42.714;23.274;2023-02-19T01:57:27;95061.56;;;5.18;67.86
21011;BME280;10663;42.714;23.274;2023-02-19T01:59:01;95065.72;;;5.38;67.15
21011;BME280;10663;42.714;23.274;2023-02-19T02:00:33;95061.91;;;5.22;67.59
21011;BME280;10663;42.714;23.274;2023-02-19T02:02:05;95066.47;;;4.97;67.97
21011;BME280;10663;42.714;23.274;2023-02-19T02:03:38;95069.19;;;4.90;68.71
21011;BME280;10663;42.714;23.274;2023-02-19T02:05:18;95074.38;;;4.78;69.47
21011;BME280;10663;42.714;23.274;2023-02-19T02:06:53;95074.56;;;4.77;69.75
21011;BME280;10663;42.714;23.274;2023-02-19T02:08:26;95081.44;;;4.78;69.87
21011;BME280;10663;42.714;23.274;2023-02-19T02:10:15;95084.06;;;4.78;70.30
21011;BME280;10663;42.714;23.274;2023-02-19T02:11:52;95087.25;;;4.80;70.27
21011;BME280;10663;42.714;23.274;2023-02-19T02:13:24;95074.94;;;4.80;70.07
21011;BME280;10663;42.714;23.274;2023-02-19T02:14:55;95070.28;;;4.82;70.37
21011;BME280;10663;42.714;23.274;2023-02-19T02:30:43;95073.94;;;4.81;71.44
21011;BME280;10663;42.714;23.274;2023-02-19T02:32:24;95073.44;;;4.73;71.48
21011;BME280;10663;42.714;23.274;2023-02-19T02:34:04;95078.69;;;4.73;71.66
21011;BME280;10663;42.714;23.274;2023-02-19T02:35:48;95071.59;;;4.92;70.63
21011;BME280;10663;42.714;23.274;2023-02-19T02:37:23;95077.34;;;5.00;70.21
21011;BME280;10663;42.714;23.274;2023-02-19T02:38:56;95080.22;;;5.10;69.72
21011;BME280;10663;42.714;23.274;2023-02-19T02:40:28;95079.28;;;5.23;69.04
21011;BME280;10663;42.714;23.274;2023-02-19T02:41:59;95076.91;;;5.33;68.58
21011;BME280;10663;42.714;23.274;2023-02-19T02:43:59;95089.13;;;5.28;68.68
21011;BME280;10663;42.714;23.274;2023-02-19T02:45:31;95083.63;;;5.29;68.59
21011;BME280;10663;42.714;23.274;2023-02-19T02:47:08;95088.63;;;5.19;68.94
21011;BME280;10663;42.714;23.274;2023-02-19T02:49:05;95087.53;;;5.08;69.77
21011;BME280;10663;42.714;23.274;2023-02-19T02:51:09;95087.59;;;5.02;70.61
21011;BME280;10663;42.714;23.274;2023-02-19T02:52:51;95090.09;;;4.97;70.52
21011;BME280;10663;42.714;23.274;2023-02-19T02:54:41;95087.91;;;4.94;70.52
21011;BME280;10663;42.714;23.274;2023-02-19T02:56:32;95082.00;;;4.98;70.40
21011;BME280;10663;42.714;23.274;2023-02-19T02:58:05;95080.59;;;5.14;69.32
21011;BME280;10663;42.714;23.274;2023-02-19T02:59:38;95084.09;;;5.26;68.40
21011;BME280;10663;42.714;23.274;2023-02-19T03:01:22;95090.84;;;5.34;68.26
21011;BME280;10663;42.714;23.274;2023-02-19T03:03:14;95089.78;;;5.23;68.81
21011;BME280;10663;42.714;23.274;2023-02-19T03:04:52;95092.50;;;5.16;69.22
21011;BME280;10663;42.714;23.274;2023-02-19T03:06:46;95091.00;;;5.20;68.75
21011;BME280;10663;42.714;23.274;2023-02-19T03:08:21;95088.97;;;5.52;67.09
21011;BME280;10663;42.714;23.274;2023-02-19T03:09:55;95092.13;;;5.73;66.00
21011;BME280;10663;42.714;23.274;2023-02-19T03:11:29;95085.53;;;5.82;65.45
21011;BME280;10663;42.714;23.274;2023-02-19T03:13:34;95084.53;;;5.94;64.89
21011;BME280;10663;42.714;23.274;2023-02-19T03:15:37;95087.78;;;6.08;64.06
21011;BME280;10663;42.714;23.274;2023-02-19T03:17:44;95088.56;;;6.20;63.84
21011;BME280;10663;42.714;23.274;2023-02-19T03:19:42;95085.63;;;6.17;63.60
21011;BME280;10663;42.714;23.274;2023-02-19T03:21:16;95086.06;;;6.14;63.49
21011;BME280;10663;42.714;23.274;2023-02-19T03:22:49;95092.72;;;6.28;62.58
21011;BME280;10663;42.714;23.274;2023-02-19T03:24:28;95095.09;;;6.29;63.11
21011;BME280;10663;42.714;23.274;2023-02-19T03:26:20;95105.88;;;6.28;62.76
21011;BME280;10663;42.714;23.274;2023-02-19T03:27:57;95104.50;;;6.25;62.66
21011;BME280;10663;42.714;23.274;2023-02-19T03:29:31;95102.06;;;6.24;63.02
21011;BME280;10663;42.714;23.274;2023-02-19T03:31:10;95106.41;;;6.30;62.79
21011;BME280;10663;42.714;23.274;2023-02-19T03:32:48;95119.00;;;6.28;62.75
21011;BME280;10663;42.714;23.274;2023-02-19T03:34:45;95115.69;;;6.32;63.00
21011;BME280;10663;42.714;23.274;2023-02-19T03:36:14;95112.25;;;6.32;62.97
21011;BME280;10663;42.714;23.274;2023-02-19T03:39:25;95118.34;;;6.44;62.62
21011;BME280;10663;42.714;23.274;2023-02-19T03:41:06;95123.03;;;6.42;62.02
21011;BME280;10663;42.714;23.274;2023-02-19T03:46:22;95123.13;;;6.47;61.95
21011;BME280;10663;42.714;23.274;2023-02-19T03:49:58;95127.13;;;6.50;62.03
21011;BME280;10663;42.714;23.274;2023-02-19T03:51:42;95128.75;;;6.51;61.61
21011;BME280;10663;42.714;23.274;2023-02-19T03:54:07;95130.94;;;6.54;61.91
21011;BME280;10663;42.714;23.274;2023-02-19T03:55:53;95127.34;;;6.48;61.77
21011;BME280;10663;42.714;23.274;2023-02-19T03:57:51;95140.41;;;6.55;61.94
21011;BME280;10663;42.714;23.274;2023-02-19T03:59:42;95132.06;;;6.69;60.89
21011;BME280;10663;42.714;23.274;2023-02-19T04:01:45;95133.53;;;6.65;61.39
21011;BME280;10663;42.714;23.274;2023-02-19T04:06:36;95138.22;;;6.87;60.46
21011;BME280;10663;42.714;23.274;2023-02-19T04:08:13;95147.16;;;6.86;60.58
21011;BME280;10663;42.714;23.274;2023-02-19T04:09:48;95146.78;;;6.94;60.37
21011;BME280;10663;42.714;23.274;2023-02-19T04:11:23;95133.06;;;7.03;60.75
21011;BME280;10663;42.714;23.274;2023-02-19T04:13:35;95139.78;;;7.11;59.87
21011;BME280;10663;42.714;23.274;2023-02-19T04:15:15;95132.31;;;7.20;59.70
21011;BME280;10663;42.714;23.274;2023-02-19T04:16:51;95137.00;;;7.29;59.88
21011;BME280;10663;42.714;23.274;2023-02-19T04:18:28;95148.03;;;7.26;59.86
21011;BME280;10663;42.714;23.274;2023-02-19T04:20:09;95146.72;;;7.29;59.74
21011;BME280;10663;42.714;23.274;2023-02-19T04:21:41;95152.34;;;7.32;59.45
21011;BME280;10663;42.714;23.274;2023-02-19T04:23:15;95153.34;;;7.43;59.28
21011;BME280;10663;42.714;23.274;2023-02-19T04:24:51;95145.00;;;7.46;59.12
21011;BME280;10663;42.714;23.274;2023-02-19T04:26:22;95150.72;;;7.43;59.25
21011;BME280;10663;42.714;23.274;2023-02-19T04:27:53;95149.56;;;7.39;59.10
21011;BME280;10663;42.714;23.274;2023-02-19T04:29:27;95149.34;;;7.40;59.78
21011;BME280;10663;42.714;23.274;2023-02-19T04:30:58;95153.53;;;7.65;59.58
21011;BME280;10663;42.714;23.274;2023-02-19T04:32:29;95147.31;;;7.71;58.83
21011;BME280;10663;42.714;23.274;2023-02-19T04:34:00;95157.41;;;7.74;58.53
21011;BME280;10663;42.714;23.274;2023-02-19T04:35:31;95152.19;;;7.79;59.10
21011;BME280;10663;42.714;23.274;2023-02-19T04:37:02;95152.56;;;7.71;58.84
21011;BME280;10663;42.714;23.274;2023-02-19T04:38:33;95153.75;;;7.63;59.16
21011;BME280;10663;42.714;23.274;2023-02-19T04:40:05;95155.09;;;7.66;59.43
21011;BME280;10663;42.714;23.274;2023-02-19T04:41:36;95151.56;;;7.72;59.84
21011;BME280;10663;42.714;23.274;2023-02-19T04:43:06;95152.56;;;7.71;59.54
21011;BME280;10663;42.714;23.274;2023-02-19T04:44:37;95159.28;;;7.90;59.62
21011;BME280;10663;42.714;23.274;2023-02-19T04:46:08;95157.56;;;7.84;59.14
21011;BME280;10663;42.714;23.274;2023-02-19T04:47:39;95161.00;;;7.84;58.99
21011;BME280;10663;42.714;23.274;2023-02-19T04:49:10;95163.84;;;7.83;59.50
21011;BME280;10663;42.714;23.274;2023-02-19T04:50:41;95154.91;;;7.84;59.15
21011;BME280;10663;42.714;23.274;2023-02-19T04:52:12;95163.84;;;7.83;59.13
21011;BME280;10663;42.714;23.274;2023-02-19T04:53:42;95163.94;;;7.71;59.24
21011;BME280;10663;42.714;23.274;2023-02-19T04:55:14;95163.59;;;7.68;58.93
21011;BME280;10663;42.714;23.274;2023-02-19T04:56:44;95160.63;;;7.64;58.98
21011;BME280;10663;42.714;23.274;2023-02-19T04:58:15;95172.88;;;7.70;59.47
21011;BME280;10663;42.714;23.274;2023-02-19T04:59:46;95159.03;;;7.63;59.18
21011;BME280;10663;42.714;23.274;2023-02-19T05:01:17;95168.44;;;7.59;58.65
21011;BME280;10663;42.714;23.274;2023-02-19T05:02:48;95173.69;;;7.59;58.83
21011;BME280;10663;42.714;23.274;2023-02-19T05:04:19;95159.03;;;7.63;58.53
21011;BME280;10663;42.714;23.274;2023-02-19T05:05:49;95160.88;;;7.63;58.58
21011;BME280;10663;42.714;23.274;2023-02-19T05:07:20;95161.06;;;7.73;57.73
21011;BME280;10663;42.714;23.274;2023-02-19T05:08:51;95164.50;;;7.73;58.07
21011;BME280;10663;42.714;23.274;2023-02-19T05:10:22;95171.69;;;7.78;57.14
21011;BME280;10663;42.714;23.274;2023-02-19T05:11:53;95164.34;;;7.80;57.35
21011;BME280;10663;42.714;23.274;2023-02-19T05:13:24;95169.50;;;7.75;57.57
21011;BME280;10663;42.714;23.274;2023-02-19T05:14:55;95164.00;;;7.76;57.09
21011;BME280;10663;42.714;23.274;2023-02-19T05:16:26;95167.94;;;7.74;56.77
21011;BME280;10663;42.714;23.274;2023-02-19T05:17:57;95167.59;;;7.70;57.15
21011;BME280;10663;42.714;23.274;2023-02-19T05:19:28;95160.72;;;7.69;56.80
21011;BME280;10663;42.714;23.274;2023-02-19T05:21:00;95166.00;;;7.69;56.48
21011;BME280;10663;42.714;23.274;2023-02-19T05:22:31;95157.44;;;7.62;56.62
21011;BME280;10663;42.714;23.274;2023-02-19T05:24:02;95155.38;;;7.64;56.28
21011;BME280;10663;42.714;23.274;2023-02-19T05:25:32;95158.22;;;7.63;56.43
21011;BME280;10663;42.714;23.274;2023-02-19T05:27:03;95157.44;;;7.62;56.94
21011;BME280;10663;42.714;23.274;2023-02-19T05:28:34;95155.47;;;7.58;56.31
21011;BME280;10663;42.714;23.274;2023-02-19T05:30:06;95162.03;;;7.55;56.57
21011;BME280;10663;42.714;23.274;2023-02-19T05:31:37;95157.09;;;7.59;56.79
21011;BME280;10663;42.714;23.274;2023-02-19T05:33:07;95175.53;;;7.59;56.58
21011;BME280;10663;42.714;23.274;2023-02-19T05:34:38;95168.13;;;7.56;57.00
21011;BME280;10663;42.714;23.274;2023-02-19T05:36:11;95168.41;;;7.71;56.34
21011;BME280;10663;42.714;23.274;2023-02-19T05:37:42;95170.75;;;8.29;56.15
21011;BME280;10663;42.714;23.274;2023-02-19T05:39:13;95185.59;;;8.47;55.17
21011;BME280;10663;42.714;23.274;2023-02-19T05:40:44;95174.88;;;8.37;54.46
21011;BME280;10663;42.714;23.274;2023-02-19T05:42:15;95175.41;;;8.39;54.62
21011;BME280;10663;42.714;23.274;2023-02-19T05:43:47;95171.50;;;8.58;55.27
21011;BME280;10663;42.714;23.274;2023-02-19T05:45:18;95167.03;;;8.75;54.53
21011;BME280;10663;42.714;23.274;2023-02-19T05:46:49;95181.56;;;8.94;54.36
21011;BME280;10663;42.714;23.274;2023-02-19T05:48:19;95193.75;;;8.95;53.79
21011;BME280;10663;42.714;23.274;2023-02-19T05:49:50;95179.16;;;8.93;53.83
21011;BME280;10663;42.714;23.274;2023-02-19T05:51:23;95182.53;;;9.05;53.98
21011;BME280;10663;42.714;23.274;2023-02-19T05:52:55;95179.69;;;9.28;53.23
21011;BME280;10663;42.714;23.274;2023-02-19T05:54:29;95185.72;;;9.46;52.78
21011;BME280;10663;42.714;23.274;2023-02-19T05:56:00;95177.00;;;9.45;52.52
21011;BME280;10663;42.714;23.274;2023-02-19T05:57:30;95192.84;;;9.45;52.52
21011;BME280;10663;42.714;23.274;2023-02-19T05:59:24;95198.56;;;9.37;52.52
21011;BME280;10663;42.714;23.274;2023-02-19T06:00:54;95188.09;;;9.47;52.54
21011;BME280;10663;42.714;23.274;2023-02-19T06:02:25;95187.94;;;9.54;52.32
21011;BME280;10663;42.714;23.274;2023-02-19T06:03:56;95198.09;;;9.62;52.24
21011;BME280;10663;42.714;23.274;2023-02-19T06:05:27;95206.88;;;9.67;51.97
21011;BME280;10663;42.714;23.274;2023-02-19T06:06:58;95199.38;;;9.59;51.90
21011;BME280;10663;42.714;23.274;2023-02-19T06:08:29;95209.47;;;9.62;52.11
21011;BME280;10663;42.714;23.274;2023-02-19T06:10:00;95203.66;;;9.65;52.30
21011;BME280;10663;42.714;23.274;2023-02-19T06:11:31;95209.06;;;9.75;52.20
21011;BME280;10663;42.714;23.274;2023-02-19T06:13:02;95211.03;;;9.85;51.52
21011;BME280;10663;42.714;23.274;2023-02-19T06:14:33;95209.94;;;9.81;51.71
21011;BME280;10663;42.714;23.274;2023-02-19T06:16:05;95210.50;;;9.83;51.66
21011;BME280;10663;42.714;23.274;2023-02-19T06:17:36;95211.28;;;9.84;52.00
21011;BME280;10663;42.714;23.274;2023-02-19T06:19:07;95215.00;;;9.83;51.91
21011;BME280;10663;42.714;23.274;2023-02-19T06:20:38;95221.47;;;9.92;51.67
21011;BME280;10663;42.714;23.274;2023-02-19T06:22:09;95213.09;;;10.00;51.42
21011;BME280;10663;42.714;23.274;2023-02-19T06:23:40;95214.94;;;9.99;51.47
21011;BME280;10663;42.714;23.274;2023-02-19T06:25:11;95223.66;;;10.00;51.71
21011;BME280;10663;42.714;23.274;2023-02-19T06:26:42;95222.06;;;9.99;51.99
21011;BME280;10663;42.714;23.274;2023-02-19T06:28:12;95222.69;;;10.11;51.51
21011;BME280;10663;42.714;23.274;2023-02-19T06:29:43;95223.22;;;10.08;51.78
21011;BME280;10663;42.714;23.274;2023-02-19T06:31:14;95221.63;;;10.07;51.81
21011;BME280;10663;42.714;23.274;2023-02-19T06:32:45;95217.00;;;9.97;52.20
21011;BME280;10663;42.714;23.274;2023-02-19T06:34:16;95224.09;;;9.92;51.93
21011;BME280;10663;42.714;23.274;2023-02-19T06:35:47;95218.75;;;9.87;51.82
21011;BME280;10663;42.714;23.274;2023-02-19T06:37:18;95231.72;;;9.88;51.78
21011;BME280;10663;42.714;23.274;2023-02-19T06:38:49;95214.19;;;9.82;51.98
21011;BME280;10663;42.714;23.274;2023-02-19T06:40:20;95233.25;;;9.62;52.06
21011;BME280;10663;42.714;23.274;2023-02-19T06:41:54;95228.06;;;9.51;52.01
21011;BME280;10663;42.714;23.274;2023-02-19T06:43:25;95230.94;;;9.27;52.64
21011;BME280;10663;42.714;23.274;2023-02-19T06:44:56;95234.09;;;9.08;53.40
21011;BME280;10663;42.714;23.274;2023-02-19T06:46:27;95230.09;;;8.88;54.04
21011;BME280;10663;42.714;23.274;2023-02-19T06:47:57;95240.03;;;8.81;54.42
21011;BME280;10663;42.714;23.274;2023-02-19T06:49:28;95242.72;;;8.86;54.30
21011;BME280;10663;42.714;23.274;2023-02-19T06:50:59;95238.72;;;8.84;54.37
21011;BME280;10663;42.714;23.274;2023-02-19T06:52:30;95250.47;;;8.76;54.65
21011;BME280;10663;42.714;23.274;2023-02-19T06:54:01;95243.38;;;8.77;54.93
21011;BME280;10663;42.714;23.274;2023-02-19T06:55:32;95246.91;;;8.82;54.99
21011;BME280;10663;42.714;23.274;2023-02-19T06:57:03;95244.66;;;8.91;54.69
21011;BME280;10663;42.714;23.274;2023-02-19T06:58:34;95244.16;;;8.94;54.52
21011;BME280;10663;42.714;23.274;2023-02-19T07:00:05;95255.75;;;8.93;54.53
21011;BME280;10663;42.714;23.274;2023-02-19T07:01:37;95249.53;;;8.99;54.54
21011;BME280;10663;42.714;23.274;2023-02-19T07:03:09;95246.56;;;8.95;54.98
21011;BME280;10663;42.714;23.274;2023-02-19T07:04:39;95254.09;;;9.04;54.81
21011;BME280;10663;42.714;23.274;2023-02-19T07:06:10;95240.41;;;9.07;54.75
21011;BME280;10663;42.714;23.274;2023-02-19T07:07:44;95239.19;;;9.14;54.52
21011;BME280;10663;42.714;23.274;2023-02-19T07:09:15;95250.81;;;9.13;54.24
21011;BME280;10663;42.714;23.274;2023-02-19T07:10:56;95242.69;;;9.20;54.18
21011;BME280;10663;42.714;23.274;2023-02-19T07:12:27;95246.00;;;9.27;54.28
21011;BME280;10663;42.714;23.274;2023-02-19T07:13:59;95256.25;;;9.23;54.02
21011;BME280;10663;42.714;23.274;2023-02-19T07:15:30;95240.47;;;9.28;54.22
21011;BME280;10663;42.714;23.274;2023-02-19T07:17:02;95246.69;;;9.39;54.15
21011;BME280;10663;42.714;23.274;2023-02-19T07:18:33;95247.19;;;9.36;54.19
21011;BME280;10663;42.714;23.274;2023-02-19T07:20:04;95232.97;;;9.42;54.20
21011;BME280;10663;42.714;23.274;2023-02-19T07:21:35;95232.94;;;9.37;54.37
21011;BME280;10663;42.714;23.274;2023-02-19T07:23:08;95233.59;;;9.49;54.25
21011;BME280;10663;42.714;23.274;2023-02-19T07:24:38;95226.91;;;9.42;54.30
21011;BME280;10663;42.714;23.274;2023-02-19T07:26:17;95226.41;;;9.66;53.76
21011;BME280;10663;42.714;23.274;2023-02-19T07:27:49;95217.56;;;9.77;53.33
21011;BME280;10663;42.714;23.274;2023-02-19T07:29:19;95223.53;;;9.68;54.04
21011;BME280;10663;42.714;23.274;2023-02-19T07:30:50;95215.69;;;9.73;53.72
21011;BME280;10663;42.714;23.274;2023-02-19T07:32:21;95215.41;;;9.96;53.12
21011;BME280;10663;42.714;23.274;2023-02-19T07:33:53;95211.28;;;10.05;54.31
21011;BME280;10663;42.714;23.274;2023-02-19T07:35:23;95220.13;;;10.16;53.00
21011;BME280;10663;42.714;23.274;2023-02-19T07:36:54;95209.63;;;10.21;52.76
21011;BME280;10663;42.714;23.274;2023-02-19T07:38:26;95209.72;;;10.31;52.75
21011;BME280;10663;42.714;23.274;2023-02-19T07:39:57;95212.91;;;10.33;52.82
21011;BME280;10663;42.714;23.274;2023-02-19T07:41:27;95207.97;;;10.42;52.42
21011;BME280;10663;42.714;23.274;2023-02-19T07:43:01;95215.66;;;10.43;52.42
21011;BME280;10663;42.714;23.274;2023-02-19T07:44:32;95214.06;;;10.42;52.62
21011;BME280;10663;42.714;23.274;2023-02-19T07:46:10;95213.03;;;10.43;53.16
21011;BME280;10663;42.714;23.274;2023-02-19T07:47:42;95219.56;;;10.63;52.17
21011;BME280;10663;42.714;23.274;2023-02-19T07:49:13;95208.88;;;10.53;52.81
21011;BME280;10663;42.714;23.274;2023-02-19T07:50:58;95201.25;;;10.61;52.55
21011;BME280;10663;42.714;23.274;2023-02-19T07:52:29;95210.41;;;10.48;52.73
21011;BME280;10663;42.714;23.274;2023-02-19T07:54:00;95201.56;;;10.65;52.06
21011;BME280;10663;42.714;23.274;2023-02-19T07:55:31;95205.50;;;10.62;52.17
21011;BME280;10663;42.714;23.274;2023-02-19T07:57:02;95208.34;;;10.82;51.59
21011;BME280;10663;42.714;23.274;2023-02-19T07:58:34;95196.47;;;10.90;51.27
21011;BME280;10663;42.714;23.274;2023-02-19T08:00:05;95195.50;;;11.06;50.74
21011;BME280;10663;42.714;23.274;2023-02-19T08:01:43;95204.84;;;11.14;50.49
21011;BME280;10663;42.714;23.274;2023-02-19T08:03:32;95204.66;;;11.25;50.14
21011;BME280;10663;42.714;23.274;2023-02-19T08:05:05;95199.69;;;11.39;49.65
21011;BME280;10663;42.714;23.274;2023-02-19T08:06:36;95202.38;;;11.44;49.58
21011;BME280;10663;42.714;23.274;2023-02-19T08:08:09;95205.28;;;11.48;49.54
21011;BME280;10663;42.714;23.274;2023-02-19T08:09:40;95207.94;;;11.48;48.94
21011;BME280;10663;42.714;23.274;2023-02-19T08:11:11;95197.56;;;11.41;49.05
21011;BME280;10663;42.714;23.274;2023-02-19T08:13:00;95203.25;;;11.60;49.02
21011;BME280;10663;42.714;23.274;2023-02-19T08:14:52;95191.41;;;11.78;48.33
21011;BME280;10663;42.714;23.274;2023-02-19T08:16:23;95203.03;;;11.72;48.56
21011;BME280;10663;42.714;23.274;2023-02-19T08:17:54;95196.75;;;11.88;48.24
21011;BME280;10663;42.714;23.274;2023-02-19T08:19:24;95206.81;;;11.86;47.53
21011;BME280;10663;42.714;23.274;2023-02-19T08:20:56;95188.56;;;11.99;47.31
21011;BME280;10663;42.714;23.274;2023-02-19T08:22:27;95197.59;;;12.04;47.11
21011;BME280;10663;42.714;23.274;2023-02-19T08:23:58;95200.00;;;12.05;47.42
21011;BME280;10663;42.714;23.274;2023-02-19T08:25:29;95191.28;;;12.20;47.12
21011;BME280;10663;42.714;23.274;2023-02-19T08:27:00;95199.31;;;12.45;46.58
21011;BME280;10663;42.714;23.274;2023-02-19T08:28:31;95194.00;;;12.45;46.60
21011;BME280;10663;42.714;23.274;2023-02-19T08:30:02;95191.59;;;12.44;46.57
21011;BME280;10663;42.714;23.274;2023-02-19T08:31:34;95195.31;;;12.53;46.32
21011;BME280;10663;42.714;23.274;2023-02-19T08:33:05;95198.25;;;12.61;46.16
21011;BME280;10663;42.714;23.274;2023-02-19T08:34:37;95195.59;;;12.46;46.28
21011;BME280;10663;42.714;23.274;2023-02-19T08:36:09;95196.38;;;12.42;46.45
21011;BME280;10663;42.714;23.274;2023-02-19T08:37:40;95198.22;;;12.41;46.50
21011;BME280;10663;42.714;23.274;2023-02-19T08:39:11;95190.81;;;12.58;46.43
21011;BME280;10663;42.714;23.274;2023-02-19T08:40:42;95197.47;;;12.71;45.87
21011;BME280;10663;42.714;23.274;2023-02-19T08:42:13;95204.91;;;12.74;46.09
21011;BME280;10663;42.714;23.274;2023-02-19T08:43:44;95186.03;;;12.81;45.92
21011;BME280;10663;42.714;23.274;2023-02-19T08:45:15;95195.34;;;12.78;45.93